Latest Weather Observations for Coonabarabran Airport

IDN60801

Issued at 5:35 am EST Wednesday 1 October 2014 (issued every 30 minutes, with the page automatically refreshed every 10 minutes)

About weather observations | Map of weather stations | Latest weather observations for NSW | Other Formats
Station Details ID: 064017 Name: COONABARABRAN AIRPORT AWS Lat: -31.33 Lon: 149.27 Height: 645.0 m
Data from the previous 72 hours. | See also: Recent months for locations in New South Wales
Date/Time
EST
Temp
°C
App
Temp
°C
Dew
Point
Rel
Hum
%
Delta-T
°C
Wind Press
QNH
hPa
Press
MSL
hPa
Rain
since 9 am
mm
Dir
 
Spd
km/h
Gust
km/h
Spd
kts
Gust
kts
01/05:30am 10.0 5.8 1.6 56 3.6 S 13 19 7 10 1018.8 1017.6 0.0
01/05:00am 10.9 5.2 2.7 57 3.7 SSW 22 37 12 20 1018.4 1017.1 0.0
01/04:30am 12.2 6.4 4.4 59 3.7 SSW 24 33 13 18 1017.9 1016.6 0.0
01/04:00am 13.4 6.7 3.8 52 4.5 S 28 39 15 21 1017.3 1016.0 0.0
01/03:39am 14.5 7.5 2.1 43 5.7 S 28 48 15 26 1017.1 1015.8 0.0
01/03:30am 15.2 8.9 1.4 39 6.2 SSW 24 35 13 19 1016.8 1015.5 0.0
01/03:06am 16.9 9.7 1.0 34 7.2 SW 28 46 15 25 1016.1 1014.8 0.0
01/03:00am 17.1 11.4 0.7 33 7.4 SW 20 32 11 17 1015.9 1014.5 0.0
01/02:30am 19.7 13.3 0.7 28 8.8 SW 24 41 13 22 1015.7 1014.4 0.0
01/02:00am 20.2 15.1 0.6 27 9.1 WSW 17 28 9 15 1015.1 1013.8 0.0
01/01:30am 20.2 15.0 0.1 26 9.2 WSW 17 22 9 12 1015.3 1014.0 0.0
01/01:00am 19.4 15.4 0.4 28 8.7 W 11 15 6 8 1015.7 1014.4 0.0
01/12:30am 20.4 15.7 0.8 27 9.1 W 15 26 8 14 1015.9 1014.5 0.0
01/12:00am 21.5 16.0 1.7 27 9.5 W 20 28 11 15 1016.1 1014.8 0.0
 
Date/Time
EST
Temp
°C
App
Temp
°C
Dew
Point
Rel
Hum
%
Delta-T
°C
Wind Press
QNH
hPa
Press
MSL
hPa
Rain
since 9 am
mm
Dir
 
Spd
km/h
Gust
km/h
Spd
kts
Gust
kts
30/11:30pm 21.3 16.0 2.1 28 9.2 W 19 24 10 13 1016.1 1014.8 0.0
30/11:00pm 22.3 16.4 1.9 26 9.8 W 22 35 12 19 1016.1 1014.8 0.0
30/10:30pm 21.8 16.9 2.0 27 9.5 W 17 26 9 14 1016.1 1014.8 0.0
30/10:00pm 22.6 16.8 2.1 26 10.0 W 22 28 12 15 1016.2 1014.9 0.0
30/09:30pm 21.4 16.8 1.6 27 9.4 NW 15 17 8 9 1016.0 1014.6 0.0
30/09:00pm 22.5 17.2 2.1 26 9.9 NW 19 20 10 11 1016.2 1014.9 0.0
30/08:30pm 20.7 16.4 3.0 31 8.6 NNW 15 17 8 9 1016.1 1014.8 0.0
30/08:00pm 21.6 17.6 2.8 29 9.2 N 13 15 7 8 1015.6 1014.3 0.0
30/07:30pm 22.6 18.6 2.7 27 9.8 N 13 17 7 9 1015.6 1014.3 0.0
30/07:00pm 24.1 18.7 2.3 24 10.7 NNW 20 32 11 17 1015.7 1014.4 0.0
30/06:30pm 24.2 18.6 5.5 30 9.8 NNW 24 41 13 22 1015.7 1014.4 0.0
30/06:00pm 22.4 19.1 6.6 36 8.3 NNW 13 15 7 8 1015.4 1014.1 0.0
30/05:30pm 24.4 21.3 7.1 33 9.3 N 13 17 7 9 1014.9 1013.6 0.0
30/05:00pm 25.1 21.1 6.8 31 9.8 N 17 26 9 14 1014.9 1013.6 0.0
30/04:30pm 26.3 21.8 6.9 29 10.5 N 20 28 11 15 1014.9 1013.6 0.0
30/04:00pm 25.9 21.5 6.5 29 10.4 N 19 26 10 14 1015.5 1014.2 0.0
30/03:30pm 26.3 21.5 7.4 30 10.3 NNW 22 32 12 17 1015.9 1014.5 0.0
30/03:00pm 26.2 20.6 7.3 30 10.3 NNW 26 37 14 20 1016.2 1014.9 0.0
30/02:30pm 26.1 20.7 8.1 32 10.0 NNW 26 37 14 20 1016.4 1015.1 0.0
30/02:00pm 25.4 19.9 7.5 32 9.8 NNW 26 39 14 21 1016.8 1015.5 0.0
30/01:30pm 26.5 21.5 8.0 31 10.2 NNW 24 35 13 19 1017.0 1015.7 0.0
30/01:00pm 25.9 19.9 7.0 30 10.2 NNW 28 37 15 20 1017.5 1016.2 0.0
30/12:30pm 26.1 18.9 5.1 26 11.0 NW 32 43 17 23 1017.6 1016.3 0.0
30/12:00pm 26.4 19.8 7.9 31 10.2 NNW 32 41 17 22 1018.1 1016.8 0.0
30/11:30am 25.5 18.9 7.6 32 9.8 NNW 32 43 17 23 1018.3 1017.0 0.0
30/11:00am 24.1 18.8 8.5 37 8.6 N 26 39 14 21 1018.5 1017.2 0.0
30/10:30am 23.1 16.9 8.0 38 8.2 N 30 41 16 22 1018.6 1017.3 0.0
30/10:00am 21.7 17.0 9.3 45 6.8 N 24 35 13 19 1019.2 1017.9 0.0
30/09:30am 20.3 15.1 8.9 48 6.2 N 26 35 14 19 1019.3 1018.0 0.0
30/09:00am 20.5 14.9 8.8 47 6.3 N 28 37 15 20 1019.3 1018.0 0.0
30/08:30am 19.3 13.8 7.7 47 6.1 N 26 35 14 19 1019.2 1017.9 0.0
30/08:00am 19.6 13.7 7.4 45 6.4 N 28 37 15 20 1018.9 1017.7 0.0
30/07:30am 19.4 13.3 6.8 44 6.6 N 28 39 15 21 1018.9 1017.7 0.0
30/07:00am 18.6 12.8 6.4 45 6.3 N 26 35 14 19 1018.8 1017.6 0.0
30/06:30am 17.8 12.0 6.3 47 5.9 N 26 33 14 18 1018.7 1017.5 0.0
30/06:00am 17.1 11.2 6.0 48 5.6 N 26 30 14 16 1018.4 1017.1 0.0
30/05:30am 17.0 11.5 5.9 48 5.6 N 24 28 13 15 1018.0 1016.7 0.0
30/05:00am 17.4 11.9 6.0 47 5.8 N 24 30 13 16 1017.9 1016.6 0.0
30/04:30am 17.0 11.9 5.9 48 5.6 N 22 28 12 15 1017.8 1016.5 0.0
30/04:00am 17.2 12.5 6.1 48 5.6 N 20 26 11 14 1017.7 1016.4 0.0
30/03:30am 16.6 12.1 6.1 50 5.3 N 19 22 10 12 1017.7 1016.4 0.0
30/03:00am 16.5 12.4 6.1 50 5.2 N 17 20 9 11 1017.9 1016.6 0.0
30/02:30am 16.8 12.7 6.0 49 5.4 N 17 20 9 11 1018.1 1016.8 0.0
30/02:00am 17.2 13.0 5.8 47 5.7 N 17 20 9 11 1018.3 1017.0 0.0
30/01:30am 16.6 12.4 5.9 49 5.4 N 17 20 9 11 1018.5 1017.2 0.0
30/01:00am 16.9 12.7 5.8 48 5.6 N 17 20 9 11 1018.8 1017.6 0.0
30/12:30am 17.3 13.1 5.6 46 5.9 N 17 19 9 10 1019.2 1017.9 0.0
30/12:00am 18.0 14.4 5.2 43 6.4 N 13 17 7 9 1019.4 1018.1 0.0
 
Date/Time
EST
Temp
°C
App
Temp
°C
Dew
Point
Rel
Hum
%
Delta-T
°C
Wind Press
QNH
hPa
Press
MSL
hPa
Rain
since 9 am
mm
Dir
 
Spd
km/h
Gust
km/h
Spd
kts
Gust
kts
29/11:30pm 18.8 15.6 5.3 41 6.8 N 11 13 6 7 1019.6 1018.3 0.0
29/11:00pm 18.9 16.2 5.4 41 6.8 N 9 11 5 6 1019.8 1018.5 0.0
29/10:30pm 19.0 16.3 5.8 42 6.7 N 9 15 5 8 1019.8 1018.5 0.0
29/10:00pm 19.2 17.0 6.3 43 6.6 N 7 15 4 8 1019.9 1018.6 0.0
29/09:30pm 19.1 16.9 6.2 43 6.6 NE 7 13 4 7 1019.8 1018.5 0.0
29/09:00pm 19.2 16.6 6.3 43 6.6 NNE 9 11 5 6 1019.7 1018.4 0.0
29/08:30pm 19.7 17.5 6.4 42 6.9 N 7 15 4 8 1019.8 1018.5 0.0
29/08:00pm 20.3 18.0 5.9 39 7.4 NNW 7 15 4 8 1019.6 1018.3 0.0
29/07:30pm 20.3 18.0 5.9 39 7.4 NW 7 15 4 8 1019.5 1018.2 0.0
29/07:00pm 20.6 18.4 6.2 39 7.4 N 7 15 4 8 1019.0 1017.8 0.0
29/06:30pm 20.6 18.5 6.5 40 7.3 N 7 13 4 7 1018.7 1017.5 0.0
29/06:00pm 21.5 19.4 6.6 38 7.8 NNW 7 15 4 8 1018.5 1017.2 0.0
29/05:30pm 22.6 20.1 6.4 35 8.5 NNW 9 13 5 7 1018.3 1017.0 0.0
29/05:00pm 23.7 20.8 6.5 33 9.1 NW 11 13 6 7 1018.0 1016.7 0.0
29/04:30pm 24.2 21.2 6.0 31 9.6 NNW 11 15 6 8 1017.9 1016.6 0.0
29/04:00pm 24.2 21.5 5.5 30 9.8 NNW 9 15 5 8 1017.8 1016.5 0.0
29/03:30pm 24.5 21.7 5.3 29 10.0 NW 9 17 5 9 1017.8 1016.5 0.0
29/03:00pm 24.7 22.1 6.0 30 9.9 W 9 15 5 8 1017.7 1016.4 0.0
29/02:30pm 24.8 21.7 7.4 33 9.4 NW 13 24 7 13 1017.8 1016.5 0.0
29/02:00pm 24.3 20.8 5.6 30 9.8 WNW 13 17 7 9 1018.0 1016.7 0.0
29/01:30pm 23.7 19.7 5.1 30 9.6 N 15 20 8 11 1018.3 1017.0 0.0
29/01:00pm 23.6 18.9 6.0 32 9.2 WNW 20 22 11 12 1018.5 1017.2 0.0
29/12:30pm 23.5 19.2 5.4 31 9.4 NNW 17 22 9 12 1018.8 1017.6 0.0
29/12:00pm 23.3 18.7 6.6 34 8.8 NW 20 30 11 16 1019.0 1017.8 0.0
29/11:30am 22.7 16.9 4.2 30 9.4 NW 24 32 13 17 1019.3 1018.0 0.0
29/11:00am 22.3 17.0 6.9 37 8.1 NNW 24 32 13 17 1019.5 1018.2 0.0
29/10:30am 21.5 16.7 7.3 40 7.5 NW 22 30 12 16 1019.8 1018.5 0.0
29/10:00am 20.5 16.1 8.8 47 6.3 NNW 22 30 12 16 1020.0 1018.7 0.0
29/09:30am 19.7 16.0 9.3 51 5.7 NNW 19 24 10 13 1020.0 1018.7 0.0
29/09:00am 18.1 13.6 8.4 53 5.1 N 22 30 12 16 1019.8 1018.5 0.0
29/08:30am 17.7 13.2 8.6 55 4.8 N 22 33 12 18 1019.8 1018.5 0.0
29/08:00am 16.1 10.9 7.3 56 4.5 N 24 32 13 17 1019.6 1018.3 0.0
29/07:30am 14.5 10.0 7.1 61 3.8 N 20 26 11 14 1019.5 1018.2 0.0
29/07:00am 13.3 9.2 6.2 62 3.5 N 17 19 9 10 1019.5 1018.2 0.0
29/06:30am 12.1 8.2 5.3 63 3.3 N 15 19 8 10 1019.3 1018.0 0.0
29/06:00am 12.0 8.8 5.0 62 3.3 N 11 15 6 8 1019.3 1018.0 0.0
29/05:30am 13.8 10.6 5.2 56 4.2 N 11 11 6 6 1019.3 1018.0 0.0
29/05:00am 14.4 11.7 5.5 55 4.4 N 9 15 5 8 1019.0 1017.8 0.0
29/04:30am 14.4 11.7 5.5 55 4.4 NNW 9 11 5 6 1018.9 1017.7 0.0
29/04:00am 13.5 10.9 5.9 60 3.7 N 9 13 5 7 1018.7 1017.5 0.0
29/03:30am 12.9 9.7 5.3 60 3.7 N 11 13 6 7 1018.3 1017.0 0.0
29/03:00am 13.4 10.6 5.3 58 3.9 N 9 11 5 6 1018.5 1017.2 0.0
29/02:30am 15.1 12.3 5.3 52 4.8 NNW 9 13 5 7 1018.9 1017.7 0.0
29/02:00am 15.7 13.4 5.6 51 5.0 NNW 7 15 4 8 1019.4 1018.1 0.0
29/01:30am 14.7 12.5 5.2 53 4.6 WNW 6 13 3 7 1019.7 1018.4 0.0
29/01:00am 14.6 12.2 5.4 54 4.5 NW 7 15 4 8 1020.0 1018.7 0.0
29/12:30am 14.6 12.2 5.4 54 4.5 NW 7 15 4 8 1020.0 1018.7 0.0
29/12:00am 15.6 13.3 5.5 51 5.0 NW 7 15 4 8 1020.0 1018.7 0.0
 
Date/Time
EST
Temp
°C
App
Temp
°C
Dew
Point
Rel
Hum
%
Delta-T
°C
Wind Press
QNH
hPa
Press
MSL
hPa
Rain
since 9 am
mm
Dir
 
Spd
km/h
Gust
km/h
Spd
kts
Gust
kts
28/11:30pm 15.5 13.1 5.4 51 5.0 NW 7 17 4 9 1020.1 1018.9 0.0
28/11:00pm 16.2 13.5 5.5 49 5.3 W 9 11 5 6 1020.4 1019.2 0.0
28/10:30pm 15.4 12.7 5.6 52 4.8 W 9 13 5 7 1020.4 1019.2 0.0
28/10:00pm 15.3 12.3 5.8 53 4.7 WNW 11 13 6 7 1020.2 1019.0 0.0
28/09:30pm 14.9 11.8 5.7 54 4.5 NNW 11 13 6 7 1020.0 1018.7 0.0
28/09:00pm 15.2 11.7 5.4 52 4.8 NNW 13 15 7 8 1019.9 1018.6 0.0
28/08:30pm 15.5 12.4 5.4 51 5.0 NNW 11 13 6 7 1019.9 1018.6 0.0
28/08:00pm 16.1 13.0 5.4 49 5.3 NNW 11 15 6 8 1019.5 1018.2 0.0
28/07:30pm 16.3 13.5 5.3 48 5.4 NNW 9 13 5 7 1019.3 1018.0 0.0
28/07:00pm 16.4 13.7 5.4 48 5.4 NNW 9 11 5 6 1018.9 1017.7 0.0
28/06:30pm 16.8 13.7 5.7 48 5.6 NW 11 13 6 7 1018.8 1017.6 0.0
28/06:00pm 17.9 15.4 6.4 47 5.9 NW 9 11 5 6 1018.8 1017.6 0.0
28/05:30pm 19.6 16.4 6.7 43 6.7 NW 13 19 7 10 1018.7 1017.5 0.0
28/05:00pm 20.5 17.3 6.8 41 7.2 NW 13 20 7 11 1018.8 1017.6 0.0
28/04:30pm 20.9 17.6 6.4 39 7.6 WNW 13 20 7 11 1018.8 1017.6 0.0
28/04:00pm 21.5 18.9 7.7 41 7.4 WNW 11 17 6 9 1019.0 1017.8 0.0
28/03:30pm 21.6 18.4 6.7 38 7.8 NW 13 19 7 10 1019.0 1017.8 0.0
28/03:00pm 21.5 18.5 6.2 37 8.0 WSW 11 17 6 9 1019.3 1018.0 0.0
28/02:30pm 21.4 18.5 4.9 34 8.4 NNE 9 15 5 8 1019.6 1018.3 0.0
28/02:00pm 21.1 18.4 5.5 36 8.0 NE 9 17 5 9 1020.1 1018.9 0.0
28/01:30pm 20.9 18.1 5.3 36 8.0 NW 9 15 5 8 1020.5 1019.3 0.0
28/01:00pm 20.7 18.0 5.5 37 7.8 NW 9 24 5 13 1020.9 1019.6 0.0
28/12:30pm 20.6 16.9 6.5 40 7.3 N 15 20 8 11 1021.3 1020.0 0.0
28/12:00pm 20.1 17.1 6.1 40 7.2 NNE 11 17 6 9 1021.6 1020.4 0.0
28/11:30am 19.7 16.6 5.7 40 7.1 N 11 20 6 11 1021.9 1020.7 0.0
28/11:00am 19.0 16.0 6.1 43 6.6 NNE 11 19 6 10 1022.3 1021.1 0.0
28/10:30am 18.7 15.9 6.9 46 6.1 NNW 11 17 6 9 1022.7 1021.4 0.0
28/10:00am 18.0 15.2 6.8 48 5.8 NNE 11 17 6 9 1023.0 1021.8 0.0
28/09:30am 17.2 14.1 7.3 52 5.1 N 13 19 7 10 1023.3 1022.1 0.0
28/09:00am 16.1 12.6 7.3 56 4.5 NNE 15 19 8 10 1023.3 1022.1 0.0
28/08:30am 15.2 12.5 7.2 59 4.1 N 11 15 6 8 1023.3 1022.1 0.0
28/08:00am 14.0 10.8 6.8 62 3.6 N 13 17 7 9 1023.1 1021.9 0.0
28/07:30am 13.2 10.2 6.1 62 3.5 NNE 11 15 6 8 1022.8 1021.5 0.0
28/07:00am 12.5 10.0 6.5 67 3.0 NE 9 13 5 7 1022.5 1021.2 0.0
28/06:30am 10.8 8.0 5.3 69 2.6 NE 9 17 5 9 1022.3 1021.1 0.0
28/06:00am 10.4 7.8 4.1 65 2.9 ENE 7 15 4 8 1022.1 1020.9 0.0

Other Formats:

Comma delimited format used in spreadsheet applications
http://www.bom.gov.au/fwo/IDN60801/IDN60801.95728.axf

JavaScript Object Notation format (JSON) in row-major order
http://www.bom.gov.au/fwo/IDN60801/IDN60801.95728.json